Ayers Rock, Northern Territory

6:50 AM ACST on July 24, 2016 (GMT +0930)
Ayers Rock (Connellan) | | Change Station

Elev 1627 ft 25.19 °S, 130.98 °E | Updated 20 minutes ago

Mostly Cloudy
Mostly Cloudy
54 °F
Feels Like 54 °F
N
12
Wind Variable Wind from South

Today
High -- | Low -- °F
--% Chance of Precip.
Yesterday
High -- | Low -- °F
Precip. -- in
Pressure 30.12 in
Visibility 6.2 miles
Clouds Mostly Cloudy 8900 ft
Dew Point 36 °F
Humidity 51%
Rainfall 0.00 in
Snow Depth Not available.
7:27 AM 6:17 PM
Waning Gibbous, 82% visible
METAR YAYE 232100Z AUTO 19010KT 9999 // BKN089 12/02 Q1020
Pressure 30.12 in
Visibility 6.2 miles
Clouds Mostly Cloudy 8900 ft
Dew Point 36 °F
Humidity 51%
Rainfall 0.00 in
Snow Depth Not available.
7:27 AM 6:17 PM
Waning Gibbous, 82% visible
METAR YAYE 232100Z AUTO 19010KT 9999 // BKN089 12/02 Q1020

10-Day Weather Forecast

No radar image for this location.
×

Almanac

Astronomy

Jul. 24, 2016 Rise Set
Actual Time
Civil Twilight
Nautical Twilight
Astronomical Twilight
Moon
Length of Visible Light
Length of Day
Tomorrow will be .
, % of the Moon is Illuminated

Today's Extremes

Country Highs Country Lows

Community

WunderPhotos

Upload Photos

1,926,927 photos uploaded!

WunderBlog® & News

Nearby

Air Quality

  Air Quality AQ Index Pollutant
Not available.

Snow Depth

Station Depth Elevation

Earthquake Activity

City Distance Mag. Time & Date
Minimum magnitude displayed is 2.5.

Coastal Water Temperatures

Place Temperature

Stations

Nearby Weather Stations

Station Location Temp. Windchill Dew Point Humidity Wind Precip. Elev Updated Type